sensor_id;sensor_type;location;lat;lon;timestamp;pressure;altitude;pressure_sealevel;temperature;humidity
51452;BME280;37521;52.020;-1.740;2022-12-18T00:00:07;100363.69;;;-2.78;100.00
51452;BME280;37521;52.020;-1.740;2022-12-18T00:02:43;100355.94;;;-2.81;100.00
51452;BME280;37521;52.020;-1.740;2022-12-18T00:05:11;100342.91;;;-2.87;100.00
51452;BME280;37521;52.020;-1.740;2022-12-18T00:07:39;100358.38;;;-2.90;100.00
51452;BME280;37521;52.020;-1.740;2022-12-18T00:10:08;100353.19;;;-2.90;100.00
51452;BME280;37521;52.020;-1.740;2022-12-18T00:12:43;100353.97;;;-2.95;100.00
51452;BME280;37521;52.020;-1.740;2022-12-18T00:15:13;100345.31;;;-3.00;100.00
51452;BME280;37521;52.020;-1.740;2022-12-18T00:17:41;100340.06;;;-3.07;100.00
51452;BME280;37521;52.020;-1.740;2022-12-18T00:20:10;100336.56;;;-3.10;100.00
51452;BME280;37521;52.020;-1.740;2022-12-18T00:22:39;100329.63;;;-3.14;100.00
51452;BME280;37521;52.020;-1.740;2022-12-18T00:25:07;100339.03;;;-3.18;100.00
51452;BME280;37521;52.020;-1.740;2022-12-18T00:27:36;100345.84;;;-3.21;100.00
51452;BME280;37521;52.020;-1.740;2022-12-18T00:30:05;100351.84;;;-3.25;100.00
51452;BME280;37521;52.020;-1.740;2022-12-18T00:32:35;100351.75;;;-3.30;100.00
51452;BME280;37521;52.020;-1.740;2022-12-18T00:35:04;100356.91;;;-3.33;100.00
51452;BME280;37521;52.020;-1.740;2022-12-18T00:37:33;100354.25;;;-3.35;100.00
51452;BME280;37521;52.020;-1.740;2022-12-18T00:40:02;100352.50;;;-3.39;100.00
51452;BME280;37521;52.020;-1.740;2022-12-18T00:42:31;100349.03;;;-3.41;100.00
51452;BME280;37521;52.020;-1.740;2022-12-18T00:45:17;100355.94;;;-3.40;100.00
51452;BME280;37521;52.020;-1.740;2022-12-18T00:47:47;100349.03;;;-3.41;100.00
51452;BME280;37521;52.020;-1.740;2022-12-18T00:50:15;100349.03;;;-3.41;100.00
51452;BME280;37521;52.020;-1.740;2022-12-18T00:52:44;100345.50;;;-3.46;100.00
51452;BME280;37521;52.020;-1.740;2022-12-18T00:55:13;100345.44;;;-3.49;100.00
51452;BME280;37521;52.020;-1.740;2022-12-18T00:57:42;100337.66;;;-3.53;100.00
51452;BME280;37521;52.020;-1.740;2022-12-18T01:00:13;100343.56;;;-3.59;100.00
51452;BME280;37521;52.020;-1.740;2022-12-18T01:02:42;100335.84;;;-3.59;100.00
51452;BME280;37521;52.020;-1.740;2022-12-18T01:05:13;100341.78;;;-3.63;100.00
51452;BME280;37521;52.020;-1.740;2022-12-18T01:07:41;100341.72;;;-3.68;100.00
51452;BME280;37521;52.020;-1.740;2022-12-18T01:10:11;100335.63;;;-3.71;100.00
51452;BME280;37521;52.020;-1.740;2022-12-18T01:12:40;100328.75;;;-3.72;100.00
51452;BME280;37521;52.020;-1.740;2022-12-18T01:15:10;100322.63;;;-3.77;100.00
51452;BME280;37521;52.020;-1.740;2022-12-18T01:17:40;100327.75;;;-3.80;100.00
51452;BME280;37521;52.020;-1.740;2022-12-18T01:20:10;100329.41;;;-3.83;100.00
51452;BME280;37521;52.020;-1.740;2022-12-18T01:22:40;100320.81;;;-3.81;100.00
51452;BME280;37521;52.020;-1.740;2022-12-18T01:25:08;100337.16;;;-3.83;100.00
51452;BME280;37521;52.020;-1.740;2022-12-18T01:27:37;100325.91;;;-3.88;100.00
51452;BME280;37521;52.020;-1.740;2022-12-18T01:30:06;100337.03;;;-3.90;100.00
51452;BME280;37521;52.020;-1.740;2022-12-18T01:32:35;100327.47;;;-3.96;100.00
51452;BME280;37521;52.020;-1.740;2022-12-18T01:35:03;100317.03;;;-4.02;100.00
51452;BME280;37521;52.020;-1.740;2022-12-18T01:37:32;100315.28;;;-4.06;100.00
51452;BME280;37521;52.020;-1.740;2022-12-18T01:40:02;100315.19;;;-4.09;100.00
51452;BME280;37521;52.020;-1.740;2022-12-18T01:42:30;100317.75;;;-4.11;100.00
51452;BME280;37521;52.020;-1.740;2022-12-18T01:45:03;100327.22;;;-4.11;100.00
51452;BME280;37521;52.020;-1.740;2022-12-18T01:47:35;100335.78;;;-4.12;100.00
51452;BME280;37521;52.020;-1.740;2022-12-18T01:50:09;100334.94;;;-4.11;100.00
51452;BME280;37521;52.020;-1.740;2022-12-18T01:52:40;100333.25;;;-4.09;100.00
51452;BME280;37521;52.020;-1.740;2022-12-18T01:55:11;100334.16;;;-4.07;100.00
51452;BME280;37521;52.020;-1.740;2022-12-18T01:57:40;100327.25;;;-4.08;100.00
51452;BME280;37521;52.020;-1.740;2022-12-18T02:00:12;100331.59;;;-4.05;100.00
51452;BME280;37521;52.020;-1.740;2022-12-18T02:02:43;100334.16;;;-4.07;100.00
51452;BME280;37521;52.020;-1.740;2022-12-18T02:05:15;100333.31;;;-4.06;100.00
51452;BME280;37521;52.020;-1.740;2022-12-18T02:07:51;100335.06;;;-4.03;100.00
51452;BME280;37521;52.020;-1.740;2022-12-18T02:10:27;100342.84;;;-4.02;100.00
51452;BME280;37521;52.020;-1.740;2022-12-18T02:13:06;100338.63;;;-3.98;100.00
51452;BME280;37521;52.020;-1.740;2022-12-18T02:15:41;100348.09;;;-3.96;100.00
51452;BME280;37521;52.020;-1.740;2022-12-18T02:18:15;100352.38;;;-3.98;100.00
51452;BME280;37521;52.020;-1.740;2022-12-18T02:20:49;100354.06;;;-4.00;100.00
51452;BME280;37521;52.020;-1.740;2022-12-18T02:23:29;100354.91;;;-4.01;100.00
51452;BME280;37521;52.020;-1.740;2022-12-18T02:26:10;100353.13;;;-4.03;100.00
51452;BME280;37521;52.020;-1.740;2022-12-18T02:28:47;100354.84;;;-4.04;100.00
51452;BME280;37521;52.020;-1.740;2022-12-18T02:31:21;100349.78;;;-3.98;100.00
51452;BME280;37521;52.020;-1.740;2022-12-18T02:33:54;100348.16;;;-3.94;100.00
51452;BME280;37521;52.020;-1.740;2022-12-18T02:36:25;100337.91;;;-3.90;100.00
51452;BME280;37521;52.020;-1.740;2022-12-18T02:38:57;100337.97;;;-3.87;100.00
51452;BME280;37521;52.020;-1.740;2022-12-18T02:41:28;100338.00;;;-3.84;100.00
51452;BME280;37521;52.020;-1.740;2022-12-18T02:44:00;100332.00;;;-3.83;100.00
51452;BME280;37521;52.020;-1.740;2022-12-18T02:46:34;100322.53;;;-3.84;100.00
51452;BME280;37521;52.020;-1.740;2022-12-18T02:49:19;100317.38;;;-3.84;100.00
51452;BME280;37521;52.020;-1.740;2022-12-18T02:51:53;100318.22;;;-3.85;100.00
51452;BME280;37521;52.020;-1.740;2022-12-18T02:54:32;100309.53;;;-3.88;100.00
51452;BME280;37521;52.020;-1.740;2022-12-18T02:57:14;100297.50;;;-3.89;100.00
51452;BME280;37521;52.020;-1.740;2022-12-18T02:59:51;100291.47;;;-3.90;100.00
51452;BME280;37521;52.020;-1.740;2022-12-18T03:02:25;100307.00;;;-3.87;100.00
51452;BME280;37521;52.020;-1.740;2022-12-18T03:04:59;100282.97;;;-3.84;100.00
51452;BME280;37521;52.020;-1.740;2022-12-18T03:07:35;100291.56;;;-3.84;100.00
51452;BME280;37521;52.020;-1.740;2022-12-18T03:10:12;100305.28;;;-3.88;100.00
51452;BME280;37521;52.020;-1.740;2022-12-18T03:12:48;100306.94;;;-3.90;100.00
51452;BME280;37521;52.020;-1.740;2022-12-18T03:15:24;100306.94;;;-3.90;100.00
51452;BME280;37521;52.020;-1.740;2022-12-18T03:18:05;100313.88;;;-3.87;100.00
51452;BME280;37521;52.020;-1.740;2022-12-18T03:20:37;100296.72;;;-3.84;100.00
51452;BME280;37521;52.020;-1.740;2022-12-18T03:23:09;100298.53;;;-3.79;100.00
51452;BME280;37521;52.020;-1.740;2022-12-18T03:25:46;100281.34;;;-3.77;100.00
51452;BME280;37521;52.020;-1.740;2022-12-18T03:28:20;100287.44;;;-3.74;100.00
51452;BME280;37521;52.020;-1.740;2022-12-18T03:30:58;100291.75;;;-3.71;100.00
51452;BME280;37521;52.020;-1.740;2022-12-18T03:33:30;100292.66;;;-3.69;100.00
51452;BME280;37521;52.020;-1.740;2022-12-18T03:36:01;100293.50;;;-3.69;100.00
51452;BME280;37521;52.020;-1.740;2022-12-18T03:38:29;100299.53;;;-3.68;100.00
51452;BME280;37521;52.020;-1.740;2022-12-18T03:41:04;100298.75;;;-3.64;100.00
51452;BME280;37521;52.020;-1.740;2022-12-18T03:43:49;100304.81;;;-3.62;100.00
51452;BME280;37521;52.020;-1.740;2022-12-18T03:46:26;100286.81;;;-3.59;100.00
51452;BME280;37521;52.020;-1.740;2022-12-18T03:48:59;100279.91;;;-3.60;100.00
51452;BME280;37521;52.020;-1.740;2022-12-18T03:51:37;100283.38;;;-3.58;100.00
51452;BME280;37521;52.020;-1.740;2022-12-18T03:54:09;100259.25;;;-3.60;100.00
51452;BME280;37521;52.020;-1.740;2022-12-18T03:56:46;100256.63;;;-3.63;100.00
51452;BME280;37521;52.020;-1.740;2022-12-18T03:59:19;100248.00;;;-3.64;100.00
51452;BME280;37521;52.020;-1.740;2022-12-18T04:01:51;100248.00;;;-3.65;100.00
51452;BME280;37521;52.020;-1.740;2022-12-18T04:04:23;100239.41;;;-3.66;100.00
51452;BME280;37521;52.020;-1.740;2022-12-18T04:06:52;100238.53;;;-3.66;100.00
51452;BME280;37521;52.020;-1.740;2022-12-18T04:09:23;100240.25;;;-3.65;100.00
51452;BME280;37521;52.020;-1.740;2022-12-18T04:11:52;100232.53;;;-3.64;100.00
51452;BME280;37521;52.020;-1.740;2022-12-18T04:14:22;100224.81;;;-3.62;100.00
51452;BME280;37521;52.020;-1.740;2022-12-18T04:16:54;100223.06;;;-3.63;100.00
51452;BME280;37521;52.020;-1.740;2022-12-18T04:19:28;100216.22;;;-3.61;100.00
51452;BME280;37521;52.020;-1.740;2022-12-18T04:21:58;100203.38;;;-3.58;100.00
51452;BME280;37521;52.020;-1.740;2022-12-18T04:24:29;100194.75;;;-3.59;100.00
51452;BME280;37521;52.020;-1.740;2022-12-18T04:27:08;100182.66;;;-3.61;100.00
51452;BME280;37521;52.020;-1.740;2022-12-18T04:29:43;100189.59;;;-3.59;100.00
51452;BME280;37521;52.020;-1.740;2022-12-18T04:32:12;100192.28;;;-3.51;100.00
51452;BME280;37521;52.020;-1.740;2022-12-18T04:34:42;100176.00;;;-3.45;100.00
51452;BME280;37521;52.020;-1.740;2022-12-18T04:37:11;100155.38;;;-3.42;100.00
51452;BME280;37521;52.020;-1.740;2022-12-18T04:39:39;100140.75;;;-3.42;100.00
51452;BME280;37521;52.020;-1.740;2022-12-18T04:42:14;100138.22;;;-3.39;100.00
51452;BME280;37521;52.020;-1.740;2022-12-18T04:44:44;100131.38;;;-3.37;100.00
51452;BME280;37521;52.020;-1.740;2022-12-18T04:47:12;100129.66;;;-3.36;100.00
51452;BME280;37521;52.020;-1.740;2022-12-18T04:49:40;100130.50;;;-3.39;100.00
51452;BME280;37521;52.020;-1.740;2022-12-18T04:52:09;100116.72;;;-3.41;100.00
51452;BME280;37521;52.020;-1.740;2022-12-18T04:54:37;100114.94;;;-3.45;100.00
51452;BME280;37521;52.020;-1.740;2022-12-18T04:57:05;100101.16;;;-3.47;100.00
51452;BME280;37521;52.020;-1.740;2022-12-18T04:59:33;100099.38;;;-3.49;100.00
51452;BME280;37521;52.020;-1.740;2022-12-18T05:02:03;100098.53;;;-3.48;100.00
51452;BME280;37521;52.020;-1.740;2022-12-18T05:04:31;100102.81;;;-3.49;100.00
51452;BME280;37521;52.020;-1.740;2022-12-18T05:06:59;100091.66;;;-3.48;100.00
51452;BME280;37521;52.020;-1.740;2022-12-18T05:09:28;100093.41;;;-3.45;100.00
51452;BME280;37521;52.020;-1.740;2022-12-18T05:11:56;100096.00;;;-3.42;100.00
51452;BME280;37521;52.020;-1.740;2022-12-18T05:14:24;100091.75;;;-3.40;100.00
51452;BME280;37521;52.020;-1.740;2022-12-18T05:16:54;100101.25;;;-3.38;100.00
51452;BME280;37521;52.020;-1.740;2022-12-18T05:19:28;100104.69;;;-3.36;100.00
51452;BME280;37521;52.020;-1.740;2022-12-18T05:21:56;100118.50;;;-3.34;100.00
51452;BME280;37521;52.020;-1.740;2022-12-18T05:24:25;100120.25;;;-3.30;100.00
51452;BME280;37521;52.020;-1.740;2022-12-18T05:26:53;100109.13;;;-3.27;100.00
51452;BME280;37521;52.020;-1.740;2022-12-18T05:29:21;100107.41;;;-3.26;100.00
51452;BME280;37521;52.020;-1.740;2022-12-18T05:31:50;100089.34;;;-3.23;100.00
51452;BME280;37521;52.020;-1.740;2022-12-18T05:34:18;100089.34;;;-3.22;100.00
51452;BME280;37521;52.020;-1.740;2022-12-18T05:36:48;100085.03;;;-3.23;100.00
51452;BME280;37521;52.020;-1.740;2022-12-18T05:39:16;100082.44;;;-3.24;100.00
51452;BME280;37521;52.020;-1.740;2022-12-18T05:41:45;100080.72;;;-3.25;100.00
51452;BME280;37521;52.020;-1.740;2022-12-18T05:44:13;100085.03;;;-3.26;100.00
51452;BME280;37521;52.020;-1.740;2022-12-18T05:46:41;100075.56;;;-3.25;100.00
51452;BME280;37521;52.020;-1.740;2022-12-18T05:49:10;100073.84;;;-3.23;100.00
51452;BME280;37521;52.020;-1.740;2022-12-18T05:51:38;100065.25;;;-3.22;100.00
51452;BME280;37521;52.020;-1.740;2022-12-18T05:54:08;100049.75;;;-3.22;100.00
51452;BME280;37521;52.020;-1.740;2022-12-18T05:56:36;100041.16;;;-3.21;100.00
51452;BME280;37521;52.020;-1.740;2022-12-18T05:59:11;100020.50;;;-3.21;100.00
51452;BME280;37521;52.020;-1.740;2022-12-18T06:01:39;100018.84;;;-3.16;100.00
51452;BME280;37521;52.020;-1.740;2022-12-18T06:04:07;100017.16;;;-3.14;100.00
51452;BME280;37521;52.020;-1.740;2022-12-18T06:06:36;100018.88;;;-3.10;100.00
51452;BME280;37521;52.020;-1.740;2022-12-18T06:09:04;100025.84;;;-3.05;100.00
51452;BME280;37521;52.020;-1.740;2022-12-18T06:11:37;100010.34;;;-3.02;100.00
51452;BME280;37521;52.020;-1.740;2022-12-18T06:14:06;100018.16;;;-2.97;100.00
51452;BME280;37521;52.020;-1.740;2022-12-18T06:16:34;100018.19;;;-2.92;100.00
51452;BME280;37521;52.020;-1.740;2022-12-18T06:19:04;100014.81;;;-2.84;100.00
51452;BME280;37521;52.020;-1.740;2022-12-18T06:21:33;100011.41;;;-2.78;100.00
51452;BME280;37521;52.020;-1.740;2022-12-18T06:24:02;100008.03;;;-2.68;100.00
51452;BME280;37521;52.020;-1.740;2022-12-18T06:26:30;100007.25;;;-2.61;100.00
51452;BME280;37521;52.020;-1.740;2022-12-18T06:29:00;100008.97;;;-2.55;100.00
51452;BME280;37521;52.020;-1.740;2022-12-18T06:31:28;100011.59;;;-2.51;100.00
51452;BME280;37521;52.020;-1.740;2022-12-18T06:33:56;100009.00;;;-2.49;100.00
51452;BME280;37521;52.020;-1.740;2022-12-18T06:36:24;100014.22;;;-2.46;100.00
51452;BME280;37521;52.020;-1.740;2022-12-18T06:38:58;100009.06;;;-2.41;100.00
51452;BME280;37521;52.020;-1.740;2022-12-18T06:41:27;100002.19;;;-2.38;100.00
51452;BME280;37521;52.020;-1.740;2022-12-18T06:43:55;99992.72;;;-2.36;100.00
51452;BME280;37521;52.020;-1.740;2022-12-18T06:46:27;99991.03;;;-2.32;100.00
51452;BME280;37521;52.020;-1.740;2022-12-18T06:48:55;99997.06;;;-2.33;100.00
51452;BME280;37521;52.020;-1.740;2022-12-18T06:51:24;99995.34;;;-2.33;100.00
51452;BME280;37521;52.020;-1.740;2022-12-18T06:53:52;99984.13;;;-2.32;100.00
51452;BME280;37521;52.020;-1.740;2022-12-18T06:56:20;99956.56;;;-2.31;100.00
51452;BME280;37521;52.020;-1.740;2022-12-18T06:58:49;99950.53;;;-2.32;100.00
51452;BME280;37521;52.020;-1.740;2022-12-18T07:01:18;99953.97;;;-2.30;100.00
51452;BME280;37521;52.020;-1.740;2022-12-18T07:03:51;99965.22;;;-2.26;100.00
51452;BME280;37521;52.020;-1.740;2022-12-18T07:06:22;99953.13;;;-2.21;100.00
51452;BME280;37521;52.020;-1.740;2022-12-18T07:08:53;99969.56;;;-2.21;100.00
51452;BME280;37521;52.020;-1.740;2022-12-18T07:11:21;99971.28;;;-2.20;100.00
51452;BME280;37521;52.020;-1.740;2022-12-18T07:13:50;99976.44;;;-2.20;100.00
51452;BME280;37521;52.020;-1.740;2022-12-18T07:16:19;99979.03;;;-2.18;100.00
51452;BME280;37521;52.020;-1.740;2022-12-18T07:18:54;99986.78;;;-2.16;100.00
51452;BME280;37521;52.020;-1.740;2022-12-18T07:21:23;99990.25;;;-2.17;100.00
51452;BME280;37521;52.020;-1.740;2022-12-18T07:23:52;99988.50;;;-2.18;100.00
51452;BME280;37521;52.020;-1.740;2022-12-18T07:26:21;99986.78;;;-2.20;100.00
51452;BME280;37521;52.020;-1.740;2022-12-18T07:28:50;99974.69;;;-2.22;100.00
51452;BME280;37521;52.020;-1.740;2022-12-18T07:31:20;99974.69;;;-2.24;100.00
51452;BME280;37521;52.020;-1.740;2022-12-18T07:33:50;99961.75;;;-2.27;100.00
51452;BME280;37521;52.020;-1.740;2022-12-18T07:36:20;99963.47;;;-2.27;100.00
51452;BME280;37521;52.020;-1.740;2022-12-18T07:38:50;99969.50;;;-2.25;100.00
51452;BME280;37521;52.020;-1.740;2022-12-18T07:41:20;99960.91;;;-2.24;100.00
51452;BME280;37521;52.020;-1.740;2022-12-18T07:43:48;99962.63;;;-2.22;100.00
51452;BME280;37521;52.020;-1.740;2022-12-18T07:46:17;99970.41;;;-2.18;100.00
51452;BME280;37521;52.020;-1.740;2022-12-18T07:48:45;99979.03;;;-2.15;100.00
51452;BME280;37521;52.020;-1.740;2022-12-18T07:51:16;99971.31;;;-2.10;100.00
51452;BME280;37521;52.020;-1.740;2022-12-18T07:53:47;99982.50;;;-2.11;100.00
51452;BME280;37521;52.020;-1.740;2022-12-18T07:56:19;100004.06;;;-2.09;100.00
51452;BME280;37521;52.020;-1.740;2022-12-18T07:58:54;99999.75;;;-2.09;100.00
51452;BME280;37521;52.020;-1.740;2022-12-18T08:01:23;99984.22;;;-2.09;100.00
51452;BME280;37521;52.020;-1.740;2022-12-18T08:03:51;99989.41;;;-2.07;100.00
51452;BME280;37521;52.020;-1.740;2022-12-18T08:06:20;99993.75;;;-2.03;100.00
51452;BME280;37521;52.020;-1.740;2022-12-18T08:08:52;99980.81;;;-2.02;100.00
51452;BME280;37521;52.020;-1.740;2022-12-18T08:11:22;99985.97;;;-2.02;100.00
51452;BME280;37521;52.020;-1.740;2022-12-18T08:13:51;99997.19;;;-2.01;100.00
51452;BME280;37521;52.020;-1.740;2022-12-18T08:16:20;100017.06;;;-2.00;100.00
51452;BME280;37521;52.020;-1.740;2022-12-18T08:18:49;100012.75;;;-1.98;100.00
51452;BME280;37521;52.020;-1.740;2022-12-18T08:21:20;100017.09;;;-1.93;100.00
51452;BME280;37521;52.020;-1.740;2022-12-18T08:23:52;100038.66;;;-1.89;100.00
51452;BME280;37521;52.020;-1.740;2022-12-18T08:26:21;100027.47;;;-1.85;100.00
51452;BME280;37521;52.020;-1.740;2022-12-18T08:28:50;100011.94;;;-1.86;100.00
51452;BME280;37521;52.020;-1.740;2022-12-18T08:31:19;100008.50;;;-1.87;100.00
51452;BME280;37521;52.020;-1.740;2022-12-18T08:33:49;100008.47;;;-1.90;100.00
51452;BME280;37521;52.020;-1.740;2022-12-18T08:36:18;100026.56;;;-1.88;100.00
51452;BME280;37521;52.020;-1.740;2022-12-18T08:38:47;100014.50;;;-1.89;100.00
51452;BME280;37521;52.020;-1.740;2022-12-18T08:41:17;100009.31;;;-1.88;100.00
51452;BME280;37521;52.020;-1.740;2022-12-18T08:43:46;100005.88;;;-1.88;100.00
51452;BME280;37521;52.020;-1.740;2022-12-18T08:46:33;99998.13;;;-1.88;100.00
51452;BME280;37521;52.020;-1.740;2022-12-18T08:49:02;100002.44;;;-1.86;100.00
51452;BME280;37521;52.020;-1.740;2022-12-18T08:51:31;99996.41;;;-1.86;100.00
51452;BME280;37521;52.020;-1.740;2022-12-18T08:54:00;99998.97;;;-1.88;100.00
51452;BME280;37521;52.020;-1.740;2022-12-18T08:56:31;99990.34;;;-1.88;100.00
51452;BME280;37521;52.020;-1.740;2022-12-18T08:59:00;99984.31;;;-1.87;100.00
51452;BME280;37521;52.020;-1.740;2022-12-18T09:01:28;99986.03;;;-1.88;100.00
51452;BME280;37521;52.020;-1.740;2022-12-18T09:03:57;99980.84;;;-1.88;100.00
51452;BME280;37521;52.020;-1.740;2022-12-18T09:06:26;99971.38;;;-1.89;100.00
51452;BME280;37521;52.020;-1.740;2022-12-18T09:08:54;99962.75;;;-1.88;100.00
51452;BME280;37521;52.020;-1.740;2022-12-18T09:11:25;99981.72;;;-1.89;100.00
51452;BME280;37521;52.020;-1.740;2022-12-18T09:13:56;99980.00;;;-1.88;100.00
51452;BME280;37521;52.020;-1.740;2022-12-18T09:16:26;99976.53;;;-1.89;100.00
51452;BME280;37521;52.020;-1.740;2022-12-18T09:18:58;99961.03;;;-1.89;100.00
51452;BME280;37521;52.020;-1.740;2022-12-18T09:21:29;99948.94;;;-1.90;100.00
51452;BME280;37521;52.020;-1.740;2022-12-18T09:24:03;99945.50;;;-1.89;100.00
51452;BME280;37521;52.020;-1.740;2022-12-18T09:26:35;99930.84;;;-1.92;100.00
51452;BME280;37521;52.020;-1.740;2022-12-18T09:29:06;99921.31;;;-1.94;100.00
51452;BME280;37521;52.020;-1.740;2022-12-18T09:31:36;99915.28;;;-1.96;100.00
51452;BME280;37521;52.020;-1.740;2022-12-18T09:34:04;99908.41;;;-1.99;100.00
51452;BME280;37521;52.020;-1.740;2022-12-18T09:36:33;99903.22;;;-2.00;100.00
51452;BME280;37521;52.020;-1.740;2022-12-18T09:39:01;99904.06;;;-2.01;100.00
51452;BME280;37521;52.020;-1.740;2022-12-18T09:41:42;99892.84;;;-2.03;100.00
51452;BME280;37521;52.020;-1.740;2022-12-18T09:44:18;99892.84;;;-2.05;100.00
51452;BME280;37521;52.020;-1.740;2022-12-18T09:46:53;99897.16;;;-2.02;100.00
51452;BME280;37521;52.020;-1.740;2022-12-18T09:49:27;99895.47;;;-1.97;100.00
51452;BME280;37521;52.020;-1.740;2022-12-18T09:52:00;99893.72;;;-1.98;100.00
51452;BME280;37521;52.020;-1.740;2022-12-18T09:54:33;99879.94;;;-1.99;100.00
51452;BME280;37521;52.020;-1.740;2022-12-18T09:57:04;99883.38;;;-1.95;100.00
51452;BME280;37521;52.020;-1.740;2022-12-18T09:59:35;99864.41;;;-1.94;100.00
51452;BME280;37521;52.020;-1.740;2022-12-18T10:02:14;99860.97;;;-1.92;100.00
51452;BME280;37521;52.020;-1.740;2022-12-18T10:04:43;99854.06;;;-1.88;100.00
51452;BME280;37521;52.020;-1.740;2022-12-18T10:07:16;99848.06;;;-1.87;100.00
51452;BME280;37521;52.020;-1.740;2022-12-18T10:09:53;99838.53;;;-1.88;100.00
51452;BME280;37521;52.020;-1.740;2022-12-18T10:12:28;99842.00;;;-1.86;100.00
51452;BME280;37521;52.020;-1.740;2022-12-18T10:15:06;99848.03;;;-1.82;100.00
51452;BME280;37521;52.020;-1.740;2022-12-18T10:17:40;99844.59;;;-1.80;100.00
51452;BME280;37521;52.020;-1.740;2022-12-18T10:20:28;99845.47;;;-1.78;100.00
51452;BME280;37521;52.020;-1.740;2022-12-18T10:23:01;99831.66;;;-1.77;100.00
51452;BME280;37521;52.020;-1.740;2022-12-18T10:25:36;99848.94;;;-1.73;100.00
51452;BME280;37521;52.020;-1.740;2022-12-18T10:28:10;99831.66;;;-1.71;100.00
51452;BME280;37521;52.020;-1.740;2022-12-18T10:30:42;99827.34;;;-1.69;100.00
51452;BME280;37521;52.020;-1.740;2022-12-18T10:33:12;99832.53;;;-1.66;100.00
51452;BME280;37521;52.020;-1.740;2022-12-18T10:35:44;99826.50;;;-1.65;100.00
51452;BME280;37521;52.020;-1.740;2022-12-18T10:38:32;99824.75;;;-1.64;100.00
51452;BME280;37521;52.020;-1.740;2022-12-18T10:41:02;99824.75;;;-1.62;100.00
51452;BME280;37521;52.020;-1.740;2022-12-18T10:43:31;99821.31;;;-1.61;100.00
51452;BME280;37521;52.020;-1.740;2022-12-18T10:46:12;99821.31;;;-1.61;100.00
51452;BME280;37521;52.020;-1.740;2022-12-18T10:48:50;99813.56;;;-1.60;100.00
51452;BME280;37521;52.020;-1.740;2022-12-18T10:51:23;99804.06;;;-1.59;100.00
51452;BME280;37521;52.020;-1.740;2022-12-18T10:53:55;99807.53;;;-1.60;100.00
51452;BME280;37521;52.020;-1.740;2022-12-18T10:56:24;99813.56;;;-1.58;100.00
51452;BME280;37521;52.020;-1.740;2022-12-18T10:58:59;99798.03;;;-1.58;100.00
51452;BME280;37521;52.020;-1.740;2022-12-18T11:01:32;99788.53;;;-1.58;100.00
51452;BME280;37521;52.020;-1.740;2022-12-18T11:04:17;99790.25;;;-1.58;100.00
51452;BME280;37521;52.020;-1.740;2022-12-18T11:06:54;99775.59;;;-1.59;100.00
51452;BME280;37521;52.020;-1.740;2022-12-18T11:09:24;99760.94;;;-1.60;100.00
51452;BME280;37521;52.020;-1.740;2022-12-18T11:11:54;99767.81;;;-1.59;100.00
51452;BME280;37521;52.020;-1.740;2022-12-18T11:14:25;99764.38;;;-1.58;100.00
51452;BME280;37521;52.020;-1.740;2022-12-18T11:16:56;99756.59;;;-1.60;100.00
51452;BME280;37521;52.020;-1.740;2022-12-18T11:19:52;99754.00;;;-1.61;100.00
51452;BME280;37521;52.020;-1.740;2022-12-18T11:22:23;99734.16;;;-1.61;100.00
51452;BME280;37521;52.020;-1.740;2022-12-18T11:24:56;99726.41;;;-1.59;100.00
51452;BME280;37521;52.020;-1.740;2022-12-18T11:27:48;99714.31;;;-1.57;100.00
51452;BME280;37521;52.020;-1.740;2022-12-18T11:30:22;99700.50;;;-1.56;100.00
51452;BME280;37521;52.020;-1.740;2022-12-18T11:32:54;99697.03;;;-1.55;100.00
51452;BME280;37521;52.020;-1.740;2022-12-18T11:35:34;99678.91;;;-1.55;100.00
51452;BME280;37521;52.020;-1.740;2022-12-18T11:38:12;99673.72;;;-1.54;100.00
51452;BME280;37521;52.020;-1.740;2022-12-18T11:40:50;99675.47;;;-1.53;100.00
51452;BME280;37521;52.020;-1.740;2022-12-18T11:43:26;99663.38;;;-1.54;100.00
51452;BME280;37521;52.020;-1.740;2022-12-18T11:45:59;99664.25;;;-1.52;100.00
51452;BME280;37521;52.020;-1.740;2022-12-18T11:48:34;99653.88;;;-1.50;100.00
51452;BME280;37521;52.020;-1.740;2022-12-18T11:51:10;99649.56;;;-1.51;100.00
51452;BME280;37521;52.020;-1.740;2022-12-18T11:53:40;99652.16;;;-1.51;100.00
51452;BME280;37521;52.020;-1.740;2022-12-18T11:56:25;99635.75;;;-1.50;100.00
51452;BME280;37521;52.020;-1.740;2022-12-18T11:59:02;99626.25;;;-1.48;100.00
51452;BME280;37521;52.020;-1.740;2022-12-18T12:01:44;99622.78;;;-1.47;100.00
51452;BME280;37521;52.020;-1.740;2022-12-18T12:04:31;99621.06;;;-1.45;100.00
51452;BME280;37521;52.020;-1.740;2022-12-18T12:07:16;99608.97;;;-1.43;100.00
51452;BME280;37521;52.020;-1.740;2022-12-18T12:09:53;99608.97;;;-1.40;100.00
51452;BME280;37521;52.020;-1.740;2022-12-18T12:12:35;99610.69;;;-1.39;100.00
51452;BME280;37521;52.020;-1.740;2022-12-18T12:15:25;99589.97;;;-1.39;100.00
51452;BME280;37521;52.020;-1.740;2022-12-18T12:18:01;99579.59;;;-1.36;100.00
51452;BME280;37521;52.020;-1.740;2022-12-18T12:20:46;99583.88;;;-1.35;100.00
51452;BME280;37521;52.020;-1.740;2022-12-18T12:23:23;99581.31;;;-1.32;100.00
51452;BME280;37521;52.020;-1.740;2022-12-18T12:25:58;99576.97;;;-1.31;100.00
51452;BME280;37521;52.020;-1.740;2022-12-18T12:28:49;99576.09;;;-1.26;100.00
51452;BME280;37521;52.020;-1.740;2022-12-18T12:31:28;99567.41;;;-1.22;100.00
51452;BME280;37521;52.020;-1.740;2022-12-18T12:34:06;99563.09;;;-1.21;100.00
51452;BME280;37521;52.020;-1.740;2022-12-18T12:36:48;99554.47;;;-1.20;100.00
51452;BME280;37521;52.020;-1.740;2022-12-18T12:39:22;99539.78;;;-1.20;100.00
51452;BME280;37521;52.020;-1.740;2022-12-18T12:41:53;99538.06;;;-1.19;100.00
51452;BME280;37521;52.020;-1.740;2022-12-18T12:44:42;99525.97;;;-1.19;100.00
51452;BME280;37521;52.020;-1.740;2022-12-18T12:47:22;99518.16;;;-1.16;100.00
51452;BME280;37521;52.020;-1.740;2022-12-18T12:49:52;99519.88;;;-1.12;100.00
51452;BME280;37521;52.020;-1.740;2022-12-18T12:52:29;99517.28;;;-1.10;100.00
51452;BME280;37521;52.020;-1.740;2022-12-18T12:55:00;99503.41;;;-1.07;100.00
51452;BME280;37521;52.020;-1.740;2022-12-18T12:57:34;99503.41;;;-1.04;100.00
51452;BME280;37521;52.020;-1.740;2022-12-18T13:00:10;99499.94;;;-1.03;100.00